createdAt,value
2022-12-01T00:01:25.970Z,36.13
2022-12-01T00:04:16.093Z,36.63
2022-12-01T00:07:04.119Z,32.58
2022-12-01T00:10:11.096Z,31.55
2022-12-01T00:13:02.059Z,34.38
2022-12-01T00:15:50.096Z,32.67
2022-12-01T00:18:38.283Z,33.75
2022-12-01T00:21:33.728Z,28.95
2022-12-01T00:24:23.501Z,32.25
2022-12-01T00:27:14.901Z,28.05
2022-12-01T00:30:03.975Z,31.05
2022-12-01T00:32:54.788Z,33.08
2022-12-01T00:35:43.388Z,34.47
2022-12-01T00:38:32.261Z,35.70
2022-12-01T00:41:21.213Z,38.70
2022-12-01T00:44:09.932Z,38.78
2022-12-01T00:46:57.970Z,40.85
2022-12-01T00:49:46.377Z,44.85
2022-12-01T00:52:34.661Z,41.50
2022-12-01T00:55:22.520Z,42.33
2022-12-01T00:58:10.579Z,42.33
2022-12-01T01:01:00.923Z,41.88
2022-12-01T01:03:49.202Z,41.13
2022-12-01T01:06:38.106Z,40.17
2022-12-01T01:09:28.933Z,44.53
2022-12-01T01:12:16.950Z,38.97
2022-12-01T01:15:07.159Z,45.30
2022-12-01T01:17:54.995Z,41.95
2022-12-01T01:20:42.925Z,47.03
2022-12-01T01:23:31.882Z,43.35
2022-12-01T01:26:25.239Z,41.88
2022-12-01T01:29:14.815Z,42.70
2022-12-01T01:32:04.995Z,42.28
2022-12-01T01:34:53.251Z,42.45
2022-12-01T01:37:41.346Z,42.90
2022-12-01T01:40:29.540Z,44.05
2022-12-01T01:43:55.123Z,36.75
2022-12-01T01:46:43.401Z,38.80
2022-12-01T01:56:26.875Z,39.17
2022-12-01T02:02:45.591Z,39.70
2022-12-01T02:05:36.253Z,36.45
2022-12-01T02:08:24.259Z,38.70
2022-12-01T02:11:50.976Z,36.50
2022-12-01T02:15:20.597Z,38.08
2022-12-01T02:18:23.026Z,37.47
2022-12-01T02:22:10.652Z,38.17
2022-12-01T02:25:29.526Z,38.58
2022-12-01T02:28:54.264Z,39.83
2022-12-01T02:31:56.749Z,40.88
2022-12-01T02:35:07.819Z,39.47
2022-12-01T02:38:13.772Z,39.78
2022-12-01T02:41:39.302Z,38.88
2022-12-01T02:44:36.919Z,38.38
2022-12-01T02:47:25.472Z,38.97
2022-12-01T02:50:14.002Z,39.67
2022-12-01T02:53:04.595Z,37.10
2022-12-01T02:55:55.667Z,40.38
2022-12-01T02:58:44.017Z,41.47
2022-12-01T03:02:18.647Z,38.97
2022-12-01T03:05:33.974Z,40.13
2022-12-01T03:08:53.901Z,36.03
2022-12-01T03:12:19.822Z,36.97
2022-12-01T03:15:32.354Z,36.83
2022-12-01T03:18:33.765Z,37.50
2022-12-01T03:21:33.759Z,37.35
2022-12-01T03:24:24.572Z,37.63
2022-12-01T03:27:15.884Z,39.78
2022-12-01T03:30:05.145Z,37.63
2022-12-01T03:33:01.412Z,39.03
2022-12-01T03:36:03.870Z,36.80
2022-12-01T03:39:05.193Z,33.05
2022-12-01T03:42:01.167Z,33.80
2022-12-01T03:44:54.589Z,37.17
2022-12-01T03:47:42.838Z,37.30
2022-12-01T03:51:08.036Z,37.08
2022-12-01T03:54:19.040Z,37.63
2022-12-01T03:57:14.439Z,37.72
2022-12-01T04:00:04.533Z,37.95
2022-12-01T04:02:58.200Z,35.97
2022-12-01T04:05:47.046Z,37.60
2022-12-01T04:08:37.482Z,36.53
2022-12-01T04:11:44.448Z,39.55
2022-12-01T04:14:33.067Z,36.95
2022-12-01T04:17:20.825Z,37.47
2022-12-01T04:20:09.625Z,39.17
2022-12-01T04:22:57.669Z,39.55
2022-12-01T04:25:45.844Z,39.65
2022-12-01T04:28:33.733Z,42.83
2022-12-01T04:31:21.981Z,40.03
2022-12-01T04:34:11.405Z,43.67
2022-12-01T04:36:59.515Z,43.20
2022-12-01T04:39:47.889Z,44.35
2022-12-01T04:42:36.095Z,44.50
2022-12-01T04:45:24.012Z,44.33
2022-12-01T04:48:12.156Z,43.90
2022-12-01T04:51:00.078Z,45.08
2022-12-01T04:53:52.129Z,45.38
2022-12-01T04:56:40.216Z,48.53
2022-12-01T04:59:28.064Z,43.80
2022-12-01T05:02:18.937Z,45.25
2022-12-01T05:05:07.350Z,45.25
2022-12-01T05:07:55.417Z,46.75
2022-12-01T05:10:43.442Z,47.28
2022-12-01T05:13:39.728Z,46.13
2022-12-01T05:16:32.473Z,44.90
2022-12-01T05:19:38.710Z,45.95
2022-12-01T05:22:42.800Z,41.50
2022-12-01T05:25:34.940Z,41.80
2022-12-01T05:28:24.987Z,42.20
2022-12-01T05:31:12.985Z,46.72
2022-12-01T05:34:01.190Z,44.08
2022-12-01T05:36:49.330Z,46.10
2022-12-01T05:39:37.274Z,40.90
2022-12-01T05:42:25.131Z,46.90
2022-12-01T05:45:17.795Z,48.42
2022-12-01T05:48:06.141Z,47.58
2022-12-01T05:50:54.299Z,46.70
2022-12-01T05:53:42.704Z,48.45
2022-12-01T05:56:30.816Z,49.72
2022-12-01T05:59:21.035Z,43.03
2022-12-01T06:02:09.093Z,46.20
2022-12-01T06:04:57.359Z,42.45
2022-12-01T06:07:45.358Z,44.88
2022-12-01T06:10:33.301Z,43.78
2022-12-01T06:13:21.313Z,46.95
2022-12-01T06:16:09.667Z,41.95
2022-12-01T06:18:58.072Z,41.78
2022-12-01T06:21:46.265Z,42.25
2022-12-01T06:24:34.433Z,44.35
2022-12-01T06:27:22.517Z,42.92
2022-12-01T06:30:11.022Z,43.05
2022-12-01T06:33:02.176Z,44.15
2022-12-01T06:36:10.161Z,43.08
2022-12-01T06:38:58.137Z,42.22
2022-12-01T06:41:46.529Z,40.17
2022-12-01T06:44:38.119Z,42.08
2022-12-01T06:47:28.979Z,39.92
2022-12-01T06:50:17.065Z,42.63
2022-12-01T06:53:11.745Z,41.70
2022-12-01T06:56:08.027Z,40.80
2022-12-01T06:59:01.725Z,41.63
2022-12-01T07:01:50.114Z,39.97
2022-12-01T07:04:38.131Z,39.28
2022-12-01T07:07:27.165Z,39.67
2022-12-01T07:10:15.209Z,39.95
2022-12-01T07:13:03.303Z,42.40
2022-12-01T07:15:51.956Z,44.30
2022-12-01T07:18:40.981Z,39.30
2022-12-01T07:21:32.318Z,39.70
2022-12-01T07:24:28.246Z,41.53
2022-12-01T07:27:45.237Z,37.88
2022-12-01T07:30:33.669Z,41.05
2022-12-01T07:33:21.964Z,41.17
2022-12-01T07:36:11.983Z,40.20
2022-12-01T07:39:13.191Z,40.22
2022-12-01T07:42:09.177Z,39.67
2022-12-01T07:44:57.366Z,41.90
2022-12-01T07:47:48.952Z,41.20
2022-12-01T07:50:37.840Z,41.25
2022-12-01T07:57:01.803Z,30.75
2022-12-01T07:59:50.501Z,27.17
2022-12-01T08:02:47.313Z,27.80
2022-12-01T08:05:35.866Z,26.25
2022-12-01T08:08:24.566Z,26.80
2022-12-01T08:11:27.893Z,24.58
2022-12-01T08:14:16.314Z,26.77
2022-12-01T08:17:10.256Z,26.23
2022-12-01T08:22:50.978Z,25.45
2022-12-01T08:25:55.240Z,29.13
2022-12-01T08:31:35.781Z,26.05
2022-12-01T08:34:23.892Z,26.35
2022-12-01T08:37:11.942Z,28.42
2022-12-01T08:39:59.926Z,26.20
2022-12-01T08:42:48.160Z,25.15
2022-12-01T08:45:36.184Z,22.88
2022-12-01T08:48:24.245Z,23.98
2022-12-01T08:51:15.677Z,26.60
2022-12-01T08:54:05.211Z,25.10
2022-12-01T08:56:53.144Z,24.70
2022-12-01T08:59:41.132Z,25.10
2022-12-01T09:02:29.581Z,26.20
2022-12-01T09:05:17.827Z,25.13
2022-12-01T09:08:24.695Z,24.38
2022-12-01T09:11:19.043Z,23.50
2022-12-01T09:14:07.213Z,24.45
2022-12-01T09:16:55.413Z,24.83
2022-12-01T09:19:44.632Z,24.42
2022-12-01T09:22:37.853Z,24.95
2022-12-01T09:25:26.251Z,26.13
2022-12-01T09:28:14.955Z,24.85
2022-12-01T09:31:11.066Z,25.95
2022-12-01T09:34:05.411Z,25.70
2022-12-01T09:36:57.699Z,24.58
2022-12-01T09:39:45.973Z,26.02
2022-12-01T09:42:35.635Z,24.95
2022-12-01T09:45:33.251Z,24.23
2022-12-01T09:48:32.147Z,25.50
2022-12-01T09:51:26.204Z,24.83
2022-12-01T09:57:03.741Z,24.98
2022-12-01T09:59:53.097Z,23.23
2022-12-01T10:03:11.604Z,25.08
2022-12-01T10:06:29.138Z,26.00
2022-12-01T10:09:23.109Z,24.60
2022-12-01T10:12:23.749Z,23.90
2022-12-01T10:15:21.978Z,26.05
2022-12-01T10:18:46.783Z,25.17
2022-12-01T10:22:18.012Z,23.73
2022-12-01T10:25:29.269Z,25.90
2022-12-01T10:28:45.290Z,23.42
2022-12-01T10:32:15.151Z,24.15
2022-12-01T10:35:03.410Z,22.88
2022-12-01T10:37:59.980Z,26.73
2022-12-01T10:40:50.957Z,26.40
2022-12-01T10:43:45.585Z,27.48
2022-12-01T10:46:58.525Z,24.60
2022-12-01T10:49:52.749Z,25.77
2022-12-01T10:52:42.305Z,24.80
2022-12-01T10:55:36.251Z,24.77
2022-12-01T10:58:24.811Z,25.25
2022-12-01T11:01:28.864Z,25.02
2022-12-01T11:04:45.639Z,25.50
2022-12-01T11:07:45.677Z,25.27
2022-12-01T11:10:34.403Z,24.67
2022-12-01T11:13:30.405Z,25.75
2022-12-01T11:21:08.383Z,25.38
2022-12-01T11:23:59.347Z,26.85
2022-12-01T11:26:54.282Z,27.58
2022-12-01T11:29:42.526Z,29.60
2022-12-01T11:32:34.601Z,27.75
2022-12-01T11:35:30.296Z,25.85
2022-12-01T11:38:31.078Z,26.85
2022-12-01T11:41:40.423Z,25.00
2022-12-01T11:48:04.531Z,27.02
2022-12-01T11:51:12.606Z,25.48
2022-12-01T11:54:23.378Z,25.52
2022-12-01T11:57:33.184Z,28.40
2022-12-01T12:00:41.161Z,27.30
2022-12-01T12:03:43.945Z,24.67
2022-12-01T12:06:59.051Z,25.27
2022-12-01T12:10:24.074Z,25.80
2022-12-01T12:13:51.778Z,26.60
2022-12-01T12:17:15.272Z,25.30
2022-12-01T12:20:15.576Z,25.05
2022-12-01T12:23:24.799Z,25.05
2022-12-01T12:26:35.461Z,24.15
2022-12-01T12:29:58.950Z,26.80
2022-12-01T12:33:08.819Z,27.08
2022-12-01T12:36:52.805Z,25.45
2022-12-01T12:39:56.986Z,26.77
2022-12-01T12:42:50.989Z,25.60
2022-12-01T12:46:25.905Z,25.10
2022-12-01T12:49:39.757Z,25.63
2022-12-01T12:52:50.425Z,25.17
2022-12-01T12:55:46.825Z,25.10
2022-12-01T12:59:12.430Z,26.08
2022-12-01T13:02:42.950Z,24.73
2022-12-01T13:06:02.488Z,27.25
2022-12-01T13:09:41.940Z,26.80
2022-12-01T13:12:40.082Z,25.25
2022-12-01T13:15:40.889Z,25.35
2022-12-01T13:19:05.296Z,23.83
2022-12-01T13:22:04.458Z,24.92
2022-12-01T13:24:52.483Z,24.23
2022-12-01T13:27:49.316Z,25.15
2022-12-01T13:31:19.389Z,23.92
2022-12-01T13:34:34.108Z,22.95
2022-12-01T13:37:40.290Z,24.13
2022-12-01T13:40:36.863Z,23.90
2022-12-01T13:43:25.965Z,24.73
2022-12-01T13:46:57.033Z,24.10
2022-12-01T13:49:56.822Z,23.88
2022-12-01T13:52:51.565Z,22.80
2022-12-01T13:56:00.772Z,24.05
2022-12-01T13:58:52.250Z,23.17
2022-12-01T14:01:45.322Z,23.60
2022-12-01T14:04:33.942Z,24.37
2022-12-01T14:07:36.997Z,25.02
2022-12-01T14:10:30.371Z,24.45
2022-12-01T14:13:25.986Z,24.60
2022-12-01T14:16:14.335Z,24.73
2022-12-01T14:19:03.385Z,24.73
2022-12-01T14:21:52.827Z,24.50
2022-12-01T14:24:43.779Z,23.52
2022-12-01T14:27:50.666Z,24.30
2022-12-01T14:30:41.693Z,23.80
2022-12-01T14:33:57.612Z,25.23
2022-12-01T14:37:06.668Z,24.60
2022-12-01T14:40:06.546Z,24.73
2022-12-01T14:43:22.930Z,25.98
2022-12-01T14:46:22.017Z,24.48
2022-12-01T14:49:24.391Z,24.02
2022-12-01T14:52:33.075Z,24.77
2022-12-01T14:55:36.397Z,23.92
2022-12-01T14:58:31.936Z,25.33
2022-12-01T15:01:22.994Z,24.42
2022-12-01T15:04:25.129Z,25.05
2022-12-01T15:07:30.441Z,23.98
2022-12-01T15:10:39.070Z,25.38
2022-12-01T15:14:22.566Z,24.48
2022-12-01T15:17:47.970Z,23.50
2022-12-01T15:20:55.207Z,24.15
2022-12-01T15:24:02.377Z,23.58
2022-12-01T15:27:04.002Z,23.55
2022-12-01T15:30:25.449Z,24.65
2022-12-01T15:33:55.223Z,26.27
2022-12-01T15:54:06.523Z,24.55
2022-12-01T15:57:02.428Z,25.00
2022-12-01T16:00:07.115Z,25.00
2022-12-01T16:03:01.972Z,26.10
2022-12-01T16:05:53.395Z,25.27
2022-12-01T16:08:45.085Z,25.35
2022-12-01T16:11:57.884Z,26.02
2022-12-01T16:15:20.012Z,24.88
2022-12-01T16:18:48.033Z,25.50
2022-12-01T16:22:37.103Z,26.23
2022-12-01T16:25:48.985Z,26.65
2022-12-01T16:28:39.253Z,25.75
2022-12-01T16:34:53.436Z,26.13
2022-12-01T16:37:52.325Z,27.02
2022-12-01T16:41:16.455Z,28.65
2022-12-01T16:44:34.939Z,29.00
2022-12-01T16:47:44.851Z,29.88
2022-12-01T16:50:38.963Z,28.70
2022-12-01T16:56:22.317Z,28.95
2022-12-01T17:03:26.293Z,29.88
2022-12-01T17:17:30.885Z,30.33
2022-12-01T17:28:19.062Z,30.88
2022-12-01T17:35:29.169Z,32.83
2022-12-01T17:38:28.134Z,29.83
2022-12-01T17:45:19.407Z,34.38
2022-12-01T18:20:38.301Z,32.92
2022-12-01T18:29:47.714Z,32.13
2022-12-01T18:32:28.138Z,33.53
2022-12-01T18:41:09.031Z,33.08
2022-12-01T19:04:52.859Z,33.20
2022-12-01T19:08:28.902Z,34.20
2022-12-01T19:11:43.264Z,32.83
2022-12-01T19:15:17.679Z,35.40
2022-12-01T19:21:57.709Z,34.47
2022-12-01T19:29:05.762Z,33.00
2022-12-01T19:32:16.055Z,34.08
2022-12-01T19:35:22.218Z,34.85
2022-12-01T19:38:50.202Z,33.38
2022-12-01T19:42:19.093Z,36.88
2022-12-01T19:45:41.079Z,33.22
2022-12-01T19:48:57.443Z,34.08
2022-12-01T19:52:48.304Z,36.22
2022-12-01T19:55:58.799Z,32.83
2022-12-01T20:02:31.753Z,34.92
2022-12-01T20:09:14.002Z,33.95
2022-12-01T20:12:20.048Z,33.30
2022-12-01T20:15:28.898Z,33.30
2022-12-01T20:18:52.193Z,34.92
2022-12-01T20:21:54.513Z,34.45
2022-12-01T20:28:28.649Z,33.60
2022-12-01T20:32:09.323Z,34.00
2022-12-01T20:40:08.324Z,34.65
2022-12-01T20:53:05.952Z,32.60
2022-12-01T20:56:12.458Z,34.67
2022-12-01T21:00:17.676Z,33.63
2022-12-01T21:21:27.265Z,34.20
2022-12-01T21:25:39.468Z,34.10
2022-12-01T21:53:48.790Z,37.23
